Time;durP1;ratioP1;P1;durP2;ratioP2;P2;SDS_P1;SDS_P2;PMS_P1;PMS_P2;Temp;Humidity;BMP_temperature;BMP_pressure;BME280_temperature;BME280_humidity;BME280_pressure;Samples;Min_cycle;Max_cycle;Signal;HPM_P1;HPM_P2
2023/01/16 00:01:33;;;;;;;1.08;0.28;;;;;;;4.69;76.62;97751.66;4954751;28;20085;-74
2023/01/16 00:04:00;;;;;;;2.47;0.30;;;;;;;4.70;76.63;97747.34;4955145;28;20042;-75
2023/01/16 00:06:27;;;;;;;1.42;0.20;;;;;;;4.70;76.66;97748.19;4954285;28;20063;-74
2023/01/16 00:08:54;;;;;;;5.10;0.20;;;;;;;4.72;76.69;97741.22;4956961;28;20047;-74
2023/01/16 00:11:20;;;;;;;5.68;0.25;;;;;;;4.74;76.41;97741.13;4953600;28;20061;-75
2023/01/16 00:13:49;;;;;;;5.32;0.30;;;;;;;4.71;76.59;97738.69;4956407;28;20054;-74
2023/01/16 00:16:18;;;;;;;3.72;0.40;;;;;;;4.76;76.71;97738.50;4957670;28;20046;-74
2023/01/16 00:18:45;;;;;;;2.03;0.20;;;;;;;4.77;76.76;97743.56;4951421;28;20039;-74
2023/01/16 00:21:12;;;;;;;3.45;0.20;;;;;;;4.77;76.62;97755.69;4949768;28;20051;-75
2023/01/16 00:23:39;;;;;;;4.00;0.43;;;;;;;4.77;76.69;97748.75;4952331;28;20047;-75
2023/01/16 00:26:07;;;;;;;2.35;0.20;;;;;;;4.77;76.68;97743.56;4953394;28;20069;-73
2023/01/16 00:28:33;;;;;;;2.47;0.17;;;;;;;4.78;76.89;97753.03;4950396;28;20046;-75
2023/01/16 00:31:02;;;;;;;3.22;0.10;;;;;;;4.78;76.67;97758.22;4952555;28;20049;-74
2023/01/16 00:33:28;;;;;;;1.77;0.10;;;;;;;4.78;76.66;97758.22;4957145;28;20063;-75
2023/01/16 00:35:55;;;;;;;2.05;0.10;;;;;;;4.78;76.67;97755.63;4951902;28;20058;-75
2023/01/16 00:38:22;;;;;;;3.10;0.47;;;;;;;4.80;76.74;97747.78;4953536;28;20475;-75
2023/01/16 00:40:49;;;;;;;1.15;0.20;;;;;;;4.79;76.74;97752.13;4954805;28;20043;-74
2023/01/16 00:43:16;;;;;;;2.13;0.20;;;;;;;4.79;76.86;97761.63;4950594;28;20047;-74
2023/01/16 00:45:43;;;;;;;3.95;0.10;;;;;;;4.80;76.59;97768.47;4954965;28;20050;-74
2023/01/16 00:48:11;;;;;;;2.78;0.10;;;;;;;4.80;76.52;97764.13;4953764;28;20500;-75
2023/01/16 00:50:38;;;;;;;2.45;0.00;;;;;;;4.80;76.64;97765.88;4952038;28;20055;-74
2023/01/16 00:53:04;;;;;;;2.25;0.20;;;;;;;4.77;76.35;97764.25;4953564;28;20601;-74
2023/01/16 00:55:33;;;;;;;1.45;0.10;;;;;;;4.79;76.53;97769.38;4953750;28;20053;-74
2023/01/16 00:58:00;;;;;;;0.80;0.00;;;;;;;4.79;76.45;97769.38;4949672;28;20043;-76
2023/01/16 01:00:27;;;;;;;0.73;0.05;;;;;;;4.79;76.63;97772.81;4953881;28;20414;-75
2023/01/16 01:02:54;;;;;;;0.73;0.00;;;;;;;4.81;76.43;97770.13;4952082;28;20058;-74
2023/01/16 01:05:22;;;;;;;0.17;0.10;;;;;;;4.81;76.60;97772.72;4951752;28;20043;-75
2023/01/16 01:07:49;;;;;;;0.00;0.00;;;;;;;4.80;76.12;97784.81;4952737;28;20062;-75
2023/01/16 01:10:16;;;;;;;1.30;0.00;;;;;;;4.81;76.41;97785.66;4952955;28;20039;-74
2023/01/16 01:12:43;;;;;;;1.00;0.10;;;;;;;4.81;76.36;97783.94;4956520;28;20050;-74
2023/01/16 01:15:10;;;;;;;1.27;0.05;;;;;;;4.80;76.51;97783.97;4960123;28;20047;-73
2023/01/16 01:17:37;;;;;;;0.32;0.00;;;;;;;4.81;76.35;97785.66;4955887;28;20054;-75
2023/01/16 01:20:05;;;;;;;0.47;0.10;;;;;;;4.82;76.33;97787.34;4958456;28;20043;-75
2023/01/16 01:22:33;;;;;;;1.50;0.10;;;;;;;4.83;76.29;97786.44;4959958;28;20047;-74
2023/01/16 01:25:00;;;;;;;0.20;0.10;;;;;;;4.83;76.34;97791.59;4959111;28;20043;-75
2023/01/16 01:27:27;;;;;;;1.65;0.10;;;;;;;4.79;76.12;97779.72;4957783;28;20074;-74
2023/01/16 01:29:54;;;;;;;0.43;0.00;;;;;;;4.82;76.14;97793.34;4956317;28;20492;-73
2023/01/16 01:32:21;;;;;;;2.20;0.03;;;;;;;4.81;76.20;97778.75;4955119;28;20449;-76
2023/01/16 01:34:48;;;;;;;0.85;0.00;;;;;;;4.82;75.97;97793.34;4958203;28;20660;-75
2023/01/16 01:37:15;;;;;;;3.92;0.10;;;;;;;4.83;76.26;97796.78;4955387;28;20217;-74
2023/01/16 01:39:43;;;;;;;1.00;0.00;;;;;;;4.82;75.98;97792.53;4956996;28;20106;-74
2023/01/16 01:44:57;;;;;;;1.30;0.00;;;;;;;4.82;76.03;97787.34;4956870;28;20101;-74
2023/01/16 01:47:31;;;;;;;1.75;0.00;;;;;;;4.81;75.92;97798.59;4956944;28;20431;-75
2023/01/16 01:50:02;;;;;;;0.20;0.00;;;;;;;4.81;75.91;97790.81;4958387;28;20049;-74
2023/01/16 01:52:33;;;;;;;1.33;0.00;;;;;;;4.81;75.90;97796.00;4953428;28;20051;-75
2023/01/16 01:55:05;;;;;;;0.60;0.00;;;;;;;4.81;75.96;97793.41;4961536;28;20048;-75
2023/01/16 01:57:35;;;;;;;0.28;0.00;;;;;;;4.79;75.99;97798.66;4956323;28;20047;-75
2023/01/16 02:00:10;;;;;;;0.03;0.00;;;;;;;4.81;75.86;97796.00;4962390;28;20130;-77
2023/01/16 02:02:44;;;;;;;0.60;0.10;;;;;;;4.80;75.77;97799.50;4957625;28;20051;-74
2023/01/16 02:05:13;;;;;;;0.00;0.00;;;;;;;4.77;75.85;97786.72;4957654;28;20043;-75
2023/01/16 02:07:40;;;;;;;1.75;0.10;;;;;;;4.80;75.83;97797.75;4956372;28;20082;-75
2023/01/16 02:10:16;;;;;;;1.88;0.00;;;;;;;4.80;75.65;97799.50;4957403;28;20492;-74
2023/01/16 02:12:43;;;;;;;1.67;0.00;;;;;;;4.76;75.71;97798.81;4960353;28;20138;-74
2023/01/16 02:15:11;;;;;;;0.20;0.10;;;;;;;4.80;75.74;97799.50;4957872;28;20047;-74
2023/01/16 02:20:28;;;;;;;2.72;0.10;;;;;;;4.80;75.63;97805.50;4951145;28;20861;-75
2023/01/16 02:23:35;;;;;;;0.20;0.00;;;;;;;4.80;75.47;97807.25;4959233;28;20041;-75
2023/01/16 02:26:43;;;;;;;0.52;0.00;;;;;;;4.79;75.30;97808.19;4961873;28;20049;-74
2023/01/16 02:29:32;;;;;;;0.10;0.00;;;;;;;4.79;75.61;97815.94;4964373;28;20047;-74
2023/01/16 02:32:11;;;;;;;0.30;0.00;;;;;;;4.79;75.57;97816.78;4960820;28;20054;-74
2023/01/16 02:34:58;;;;;;;0.98;0.43;;;;;;;4.79;75.41;97816.78;4957504;28;20042;-76
2023/01/16 02:37:37;;;;;;;0.25;0.00;;;;;;;4.80;75.35;97820.19;4956469;28;20051;-74
2023/01/16 02:40:14;;;;;;;0.20;0.00;;;;;;;4.80;75.34;97835.72;4956307;28;20051;-75
2023/01/16 02:42:45;;;;;;;0.15;0.00;;;;;;;4.80;75.46;97833.13;4963458;28;20045;-75
2023/01/16 02:45:22;;;;;;;0.00;0.00;;;;;;;4.80;75.52;97827.94;4956399;28;20050;-75
2023/01/16 02:47:57;;;;;;;0.65;0.00;;;;;;;4.79;75.41;97829.69;4963648;28;20061;-75
2023/01/16 02:50:27;;;;;;;;;;;;;;;4.81;75.32;97837.38;4960739;28;20130;-74
2023/01/16 02:53:00;;;;;;;1.75;0.20;;;;;;;4.79;75.28;97840.03;4959454;28;20014;-74
2023/01/16 02:55:33;;;;;;;0.38;0.00;;;;;;;4.78;75.70;97833.19;4956095;28;20053;-74
2023/01/16 02:58:03;;;;;;;0.00;0.00;;;;;;;4.79;75.29;97842.63;4958047;28;20058;-74
2023/01/16 03:00:30;;;;;;;0.10;0.00;;;;;;;4.78;75.28;97833.19;4957165;28;20603;-74
2023/01/16 03:02:59;;;;;;;0.00;0.00;;;;;;;4.79;75.14;97837.47;4961609;28;20073;-74
2023/01/16 03:05:27;;;;;;;1.55;0.10;;;;;;;4.79;74.97;97836.63;4958170;28;20081;-75
2023/01/16 03:08:18;;;;;;;1.80;0.00;;;;;;;4.77;75.18;97841.84;4958155;28;20053;-74
2023/01/16 03:11:11;;;;;;;0.00;0.00;;;;;;;4.78;74.97;97847.84;4957881;28;20046;-74
2023/01/16 03:13:52;;;;;;;0.70;0.00;;;;;;;4.78;74.82;97847.84;4956067;28;20046;-74
2023/01/16 03:16:31;;;;;;;0.73;0.00;;;;;;;4.77;75.00;97844.44;4960089;28;20595;-75
2023/01/16 03:19:12;;;;;;;0.45;0.00;;;;;;;4.79;75.08;97849.56;4960840;28;20047;-74
2023/01/16 03:21:48;;;;;;;0.70;0.00;;;;;;;4.78;75.16;97848.72;4961466;28;20051;-75
2023/01/16 03:24:27;;;;;;;0.82;0.00;;;;;;;4.78;75.09;97853.88;4959286;28;20054;-74
2023/01/16 03:26:59;;;;;;;0.10;0.00;;;;;;;4.76;74.85;97860.88;4958600;28;20057;-71
2023/01/16 03:29:32;;;;;;;0.08;0.00;;;;;;;4.78;74.91;97868.53;4962832;28;20054;-71
2023/01/16 03:32:05;;;;;;;0.10;0.00;;;;;;;4.77;74.84;97867.69;4958427;28;20106;-71
2023/01/16 03:34:42;;;;;;;0.45;0.00;;;;;;;4.78;74.92;97868.53;4959814;28;20488;-71
2023/01/16 03:37:12;;;;;;;0.00;0.00;;;;;;;4.78;75.09;97876.28;4958802;28;20166;-71
2023/01/16 03:39:46;;;;;;;0.13;0.00;;;;;;;4.77;74.78;97866.88;4960281;28;20481;-71
2023/01/16 03:42:16;;;;;;;0.30;0.30;;;;;;;4.77;74.94;97882.38;4959591;28;20101;-71
2023/01/16 03:44:51;;;;;;;0.10;0.00;;;;;;;4.72;75.00;97865.31;4961328;28;20531;-71
2023/01/16 03:47:24;;;;;;;0.00;0.00;;;;;;;4.76;74.94;97868.63;4960339;28;20046;-71
2023/01/16 03:49:56;;;;;;;0.00;0.00;;;;;;;4.75;74.83;97877.25;4957053;28;20043;-71
2023/01/16 03:52:31;;;;;;;0.00;0.00;;;;;;;4.73;74.71;97882.50;4960280;28;20057;-71
2023/01/16 03:55:06;;;;;;;0.88;0.00;;;;;;;4.71;74.88;97889.47;4959112;28;20047;-71
2023/01/16 03:57:36;;;;;;;1.65;0.00;;;;;;;4.70;74.77;97887.81;4963006;28;20078;-88
2023/01/16 04:00:04;;;;;;;0.32;0.00;;;;;;;4.69;74.92;97893.88;4964700;28;20043;-88
2023/01/16 04:02:42;;;;;;;0.45;0.20;;;;;;;4.67;74.82;97885.34;4970119;28;20651;-88
2023/01/16 04:05:17;;;;;;;1.65;0.10;;;;;;;4.68;74.96;97902.53;4969070;28;20050;-89
2023/01/16 04:07:48;;;;;;;0.50;0.00;;;;;;;4.67;74.96;97903.44;4958053;28;20061;-88
2023/01/16 04:10:21;;;;;;;0.00;0.00;;;;;;;4.65;75.09;97907.84;4963957;28;20047;-88
2023/01/16 04:12:52;;;;;;;0.82;0.00;;;;;;;4.65;74.82;97915.59;4968406;28;20047;-88
2023/01/16 04:15:20;;;;;;;0.15;0.00;;;;;;;4.66;74.97;97921.59;4960378;28;20046;-89
2023/01/16 04:17:47;;;;;;;0.75;0.00;;;;;;;4.39;74.73;97887.38;4971263;28;20096;-88
2023/01/16 04:20:16;;;;;;;1.55;0.00;;;;;;;4.62;74.83;97926.06;4962863;28;20045;-87
2023/01/16 04:22:49;;;;;;;0.10;0.00;;;;;;;4.49;74.68;97911.94;4968187;28;20043;-88
2023/01/16 04:25:17;;;;;;;0.05;0.00;;;;;;;4.60;74.84;97942.53;4970184;28;20048;-88
2023/01/16 04:27:44;;;;;;;0.10;0.00;;;;;;;4.59;74.94;97943.44;4965954;28;20411;-88
2023/01/16 04:30:12;;;;;;;0.05;0.00;;;;;;;4.58;74.70;97947.78;4967343;28;20043;-88
2023/01/16 04:32:39;;;;;;;1.55;0.00;;;;;;;4.46;75.00;97933.56;4966191;28;20047;-88
2023/01/16 04:35:06;;;;;;;1.75;0.00;;;;;;;4.57;74.98;97947.81;4967305;28;20053;-89
2023/01/16 04:37:35;;;;;;;0.00;0.00;;;;;;;4.34;74.40;97915.13;4968717;28;20057;-86
2023/01/16 04:40:02;;;;;;;0.45;0.00;;;;;;;4.53;74.36;97962.63;4963642;28;20487;-88
2023/01/16 04:42:29;;;;;;;1.55;0.00;;;;;;;4.51;74.58;97972.19;4967475;28;20051;-89
2023/01/16 04:44:56;;;;;;;0.63;0.00;;;;;;;4.50;74.59;97970.50;4964486;28;20411;-88
2023/01/16 04:47:23;;;;;;;0.38;0.00;;;;;;;4.49;74.79;97979.13;4973092;28;20047;-89
2023/01/16 04:49:50;;;;;;;0.00;0.00;;;;;;;4.48;74.79;97985.22;4971068;28;20053;-88
2023/01/16 04:52:17;;;;;;;0.00;0.00;;;;;;;4.48;74.95;97982.63;4974493;28;20062;-88
2023/01/16 04:54:45;;;;;;;0.13;0.00;;;;;;;4.46;74.77;97992.19;4974046;28;20475;-88
2023/01/16 04:57:12;;;;;;;0.00;0.00;;;;;;;4.46;74.77;97994.75;4965559;28;20039;-88
2023/01/16 04:59:39;;;;;;;0.10;0.00;;;;;;;4.44;75.01;97994.84;4969232;28;20051;-88
2023/01/16 05:02:06;;;;;;;0.00;0.00;;;;;;;4.44;75.00;97997.44;4972842;28;20051;-88
2023/01/16 05:04:33;;;;;;;0.10;0.00;;;;;;;4.43;74.92;98000.91;4970254;28;20134;-89
2023/01/16 05:06:59;;;;;;;1.98;0.00;;;;;;;4.42;75.14;98000.97;4975774;28;20054;-89
2023/01/16 05:09:26;;;;;;;0.00;0.00;;;;;;;4.13;74.99;97958.16;4967466;28;20475;-88
2023/01/16 05:11:54;;;;;;;0.40;0.00;;;;;;;4.28;74.75;97994.56;4961680;28;20055;-89
2023/01/16 05:14:22;;;;;;;0.25;0.00;;;;;;;4.38;74.79;98015.72;4962173;28;20506;-89
2023/01/16 05:16:49;;;;;;;0.45;0.00;;;;;;;4.38;74.83;98026.06;4970900;28;20059;-89
2023/01/16 05:19:16;;;;;;;0.63;0.00;;;;;;;4.37;74.59;98026.13;4965493;28;20054;-88
2023/01/16 05:21:42;;;;;;;1.35;0.00;;;;;;;4.37;74.80;98028.72;4965469;28;20047;-89
2023/01/16 05:24:09;;;;;;;1.00;0.00;;;;;;;4.36;74.55;98016.72;4968095;28;20055;-88
2023/01/16 05:26:36;;;;;;;0.03;0.00;;;;;;;4.33;74.50;98033.16;4965539;28;20051;-88
2023/01/16 05:29:05;;;;;;;0.15;0.00;;;;;;;4.32;74.21;98043.53;4967178;28;20043;-88
2023/01/16 05:31:31;;;;;;;0.00;0.00;;;;;;;4.29;74.18;98047.91;4968311;28;20057;-89
2023/01/16 05:33:58;;;;;;;0.35;0.00;;;;;;;4.28;74.17;98045.41;4966593;28;20055;-88
2023/01/16 05:36:25;;;;;;;0.10;0.00;;;;;;;4.24;73.82;98054.16;4961713;28;20051;-88
2023/01/16 05:38:53;;;;;;;0.00;0.00;;;;;;;4.24;73.67;98067.94;4963488;28;20057;-89
2023/01/16 05:41:20;;;;;;;0.10;0.00;;;;;;;4.23;73.39;98068.81;4964925;28;20050;-89
2023/01/16 05:43:47;;;;;;;0.57;0.00;;;;;;;4.23;73.28;98073.16;4964692;28;20521;-88
2023/01/16 05:46:15;;;;;;;0.00;0.00;;;;;;;4.21;73.67;98083.56;4947413;28;20052;-88
2023/01/16 05:48:42;;;;;;;0.20;0.20;;;;;;;4.19;73.48;98090.50;4949960;29;20472;-86
2023/01/16 05:51:09;;;;;;;1.02;0.00;;;;;;;3.87;73.55;98044.31;4946992;28;20048;-88
2023/01/16 05:53:35;;;;;;;0.00;0.00;;;;;;;4.14;73.51;98095.00;4943583;28;20047;-86
2023/01/16 05:56:08;;;;;;;0.00;0.00;;;;;;;4.17;73.62;98101.81;4947012;28;20047;-87
2023/01/16 05:58:35;;;;;;;0.17;0.00;;;;;;;4.06;73.79;98086.66;4945942;28;20135;-88
2023/01/16 06:01:01;;;;;;;0.00;0.00;;;;;;;4.14;73.38;98100.16;4956447;29;20073;-88
2023/01/16 06:03:30;;;;;;;1.17;0.00;;;;;;;4.13;73.38;98097.66;4943507;28;20047;-89
2023/01/16 06:05:58;;;;;;;0.13;0.00;;;;;;;4.12;73.66;98107.13;4950130;29;20051;-89
2023/01/16 06:08:25;;;;;;;1.02;0.00;;;;;;;4.10;73.33;98114.09;4943013;29;20058;-88
2023/01/16 06:10:52;;;;;;;0.00;0.00;;;;;;;4.10;73.82;98123.56;4952413;29;20054;-88
2023/01/16 06:13:19;;;;;;;0.30;0.00;;;;;;;4.08;73.36;98136.56;4948620;29;20559;-88
2023/01/16 06:15:46;;;;;;;0.00;0.00;;;;;;;4.06;73.77;98139.16;4945208;28;20051;-88
2023/01/16 06:18:14;;;;;;;0.28;0.28;;;;;;;4.06;73.56;98146.09;4947153;29;20048;-88
2023/01/16 06:20:42;;;;;;;0.50;0.10;;;;;;;4.04;73.85;98146.16;4944794;29;20078;-88
2023/01/16 06:23:09;;;;;;;0.25;0.00;;;;;;;3.98;73.57;98145.50;4945335;29;20051;-84
2023/01/16 06:25:36;;;;;;;0.90;0.00;;;;;;;4.03;73.72;98153.94;4941120;29;20079;-85
2023/01/16 06:28:03;;;;;;;0.10;0.00;;;;;;;4.01;73.88;98159.19;4945120;29;20481;-85
2023/01/16 06:30:30;;;;;;;0.52;0.00;;;;;;;3.96;73.64;98157.66;4946244;29;20055;-85
2023/01/16 06:32:57;;;;;;;1.65;0.08;;;;;;;4.02;73.77;98167.75;4943478;29;20051;-85
2023/01/16 06:35:24;;;;;;;0.00;0.00;;;;;;;4.01;73.79;98171.22;4946241;28;20131;-76
2023/01/16 06:37:53;;;;;;;0.03;0.00;;;;;;;3.99;74.37;98173.03;4942825;28;20065;-76
2023/01/16 06:40:20;;;;;;;0.03;0.00;;;;;;;3.98;73.78;98181.66;4940796;29;20051;-77
2023/01/16 06:42:47;;;;;;;0.40;0.10;;;;;;;3.96;73.75;98180.88;4944439;29;20054;-77
2023/01/16 06:45:14;;;;;;;0.03;0.03;;;;;;;3.95;73.64;98186.94;4936842;29;20063;-78
2023/01/16 06:47:40;;;;;;;0.20;0.10;;;;;;;3.93;73.47;98189.56;4935742;29;20044;-78
2023/01/16 06:50:09;;;;;;;2.95;0.50;;;;;;;3.90;73.97;98188.81;4940687;28;20043;-78
2023/01/16 06:52:37;;;;;;;0.20;0.00;;;;;;;3.87;73.81;98204.41;4942587;28;20053;-77
2023/01/16 06:55:06;;;;;;;1.42;0.00;;;;;;;3.88;73.44;98221.63;4940899;28;20138;-76
2023/01/16 06:57:35;;;;;;;0.57;0.05;;;;;;;3.87;73.47;98219.91;4943444;28;20055;-77
2023/01/16 07:00:03;;;;;;;2.95;0.10;;;;;;;3.85;73.13;98219.13;4944557;28;20568;-76
2023/01/16 07:02:30;;;;;;;0.20;0.10;;;;;;;3.77;73.68;98220.22;4940408;28;20103;-77
2023/01/16 07:04:57;;;;;;;0.68;0.10;;;;;;;3.82;73.50;98233.81;4942157;28;20043;-76
2023/01/16 07:07:24;;;;;;;0.10;0.10;;;;;;;3.81;73.55;98228.69;4943459;28;20132;-77
2023/01/16 07:09:51;;;;;;;0.03;0.03;;;;;;;3.80;73.11;98239.94;4946541;28;20126;-77
2023/01/16 07:12:19;;;;;;;2.30;0.08;;;;;;;3.77;73.50;98240.88;4942961;29;20058;-77
2023/01/16 07:23:00;;;;;;;2.20;0.00;;;;;;;3.61;73.30;98239.66;4950223;28;20134;-77
2023/01/16 07:25:33;;;;;;;0.43;0.00;;;;;;;3.70;72.86;98269.50;4947914;28;20054;-77
2023/01/16 07:28:02;;;;;;;0.25;0.00;;;;;;;3.67;72.49;98262.72;4946060;29;20051;-77
2023/01/16 07:30:29;;;;;;;0.90;0.10;;;;;;;3.67;72.69;98260.13;4945333;28;20051;-77
2023/01/16 07:32:56;;;;;;;0.30;0.00;;;;;;;3.64;72.17;98288.59;4943916;28;20085;-77
2023/01/16 07:35:23;;;;;;;1.13;0.00;;;;;;;3.62;72.60;98298.16;4946421;29;20047;-77
2023/01/16 07:37:52;;;;;;;0.35;0.08;;;;;;;3.60;72.25;98300.75;4951452;28;20126;-77
2023/01/16 07:40:19;;;;;;;0.00;0.00;;;;;;;3.51;72.21;98284.72;4948222;28;20038;-77
2023/01/16 07:42:46;;;;;;;0.00;0.00;;;;;;;3.56;72.30;98299.16;4950179;28;20534;-77
2023/01/16 07:45:14;;;;;;;0.22;0.00;;;;;;;3.54;72.17;98298.38;4941014;28;20048;-76
2023/01/16 07:47:41;;;;;;;0.55;0.00;;;;;;;3.52;72.22;98307.88;4948730;28;20045;-77
2023/01/16 07:50:09;;;;;;;0.10;0.00;;;;;;;3.53;72.51;98316.47;4950945;28;20043;-79
2023/01/16 07:52:36;;;;;;;0.10;0.00;;;;;;;3.52;72.37;98325.09;4924737;28;20452;-71
2023/01/16 07:55:03;;;;;;;0.20;0.10;;;;;;;3.49;72.22;98328.63;4933817;29;20417;-70
2023/01/16 07:57:30;;;;;;;0.00;0.00;;;;;;;3.47;72.38;98334.72;4940373;28;20428;-70
2023/01/16 07:59:57;;;;;;;0.08;0.00;;;;;;;3.44;71.96;98337.38;4942705;28;20052;-71
2023/01/16 08:02:25;;;;;;;0.10;0.10;;;;;;;3.44;71.91;98348.53;4939678;28;20054;-71
2023/01/16 08:04:52;;;;;;;0.00;0.00;;;;;;;3.41;72.11;98352.97;4940856;28;20043;-71
2023/01/16 08:07:19;;;;;;;0.08;0.00;;;;;;;3.41;71.79;98365.88;4939310;29;20051;-71
2023/01/16 08:09:46;;;;;;;0.00;0.00;;;;;;;3.40;72.17;98374.50;4936778;28;20051;-71
2023/01/16 08:12:13;;;;;;;0.63;0.10;;;;;;;3.37;72.05;98375.44;4940638;28;20548;-71
2023/01/16 08:14:40;;;;;;;0.15;0.00;;;;;;;3.36;72.07;98387.50;4941904;29;20166;-71
2023/01/16 08:17:07;;;;;;;2.15;0.00;;;;;;;3.33;71.78;98389.28;4941386;28;20043;-71
2023/01/16 08:19:35;;;;;;;0.43;0.00;;;;;;;3.34;72.15;98399.59;4928932;28;20066;-71
2023/01/16 08:22:03;;;;;;;0.15;0.10;;;;;;;3.33;71.69;98405.66;4939902;28;20056;-72
2023/01/16 08:24:30;;;;;;;0.00;0.00;;;;;;;3.32;71.73;98414.25;4939394;28;20054;-72
2023/01/16 08:26:57;;;;;;;0.65;0.10;;;;;;;3.31;71.72;98417.72;4941357;28;20747;-71
2023/01/16 08:29:25;;;;;;;0.30;0.00;;;;;;;3.28;71.60;98433.28;4942582;28;20047;-71
2023/01/16 08:31:52;;;;;;;1.38;0.00;;;;;;;3.19;71.97;98418.06;4937160;28;20058;-71
2023/01/16 08:34:19;;;;;;;0.38;0.00;;;;;;;3.26;71.99;98437.63;4937193;28;20048;-71
2023/01/16 08:36:47;;;;;;;0.20;0.10;;;;;;;3.25;72.03;98448.03;4939331;28;20047;-71
2023/01/16 08:39:14;;;;;;;0.20;0.10;;;;;;;3.24;72.19;98454.88;4944897;29;20055;-71
2023/01/16 08:52:45;;;;;;;0.10;0.10;;;;;;;3.17;72.26;98484.31;4941427;28;20114;-70
2023/01/16 08:55:12;;;;;;;0.55;0.10;;;;;;;3.17;72.08;98481.75;4937944;28;20051;-70
2023/01/16 08:57:39;;;;;;;0.50;0.00;;;;;;;3.17;71.72;98486.06;4940995;28;20665;-70
2023/01/16 09:00:08;;;;;;;2.63;0.10;;;;;;;3.14;72.03;98497.31;4938302;28;20052;-70
2023/01/16 09:02:36;;;;;;;0.28;0.00;;;;;;;3.12;71.89;98499.91;4941506;29;20052;-70
2023/01/16 09:05:06;;;;;;;2.63;0.10;;;;;;;3.11;71.95;98505.13;4937354;28;20522;-72
2023/01/16 09:07:33;;;;;;;0.20;0.10;;;;;;;3.10;71.56;98513.72;4941208;28;20431;-72
2023/01/16 09:10:01;;;;;;;0.90;0.00;;;;;;;3.09;72.21;98515.47;4940969;28;20444;-71
2023/01/16 09:15:13;;;;;;;1.33;0.10;;;;;;;3.06;72.10;98514.69;4941992;28;20050;-71
2023/01/16 09:17:40;;;;;;;0.95;0.10;;;;;;;3.06;72.38;98525.00;4936822;28;20051;-71
2023/01/16 09:20:08;;;;;;;1.23;0.10;;;;;;;3.04;71.83;98526.78;4942087;28;20051;-72
2023/01/16 09:22:35;;;;;;;0.30;0.00;;;;;;;3.04;71.96;98534.50;4945280;28;20039;-72
2023/01/16 09:25:03;;;;;;;1.45;0.00;;;;;;;3.03;71.51;98543.16;4941048;28;20054;-71
2023/01/16 09:27:30;;;;;;;1.23;0.00;;;;;;;3.01;71.57;98542.31;4937406;28;20130;-72
2023/01/16 09:29:58;;;;;;;0.20;0.00;;;;;;;2.97;71.62;98546.72;4941939;28;20043;-71
2023/01/16 09:32:25;;;;;;;0.30;0.10;;;;;;;2.99;71.74;98554.41;4943808;28;20130;-71
2023/01/16 09:34:52;;;;;;;0.60;0.03;;;;;;;2.97;72.17;98557.03;4944941;28;20425;-71
2023/01/16 09:37:19;;;;;;;0.10;0.00;;;;;;;2.98;71.93;98557.88;4943514;28;20054;-72
2023/01/16 09:39:46;;;;;;;0.55;0.00;;;;;;;2.96;72.17;98563.09;4944145;28;20055;-73
2023/01/16 09:45:20;;;;;;;2.10;0.70;;;;;;;2.95;71.80;98581.16;4942290;28;20055;-72
2023/01/16 09:47:51;;;;;;;2.03;0.00;;;;;;;2.91;72.35;98582.97;4946687;28;20051;-72
2023/01/16 09:50:25;;;;;;;0.77;0.08;;;;;;;2.93;72.30;98589.78;4941557;28;20058;-72
2023/01/16 09:58:36;;;;;;;1.85;0.10;;;;;;;2.94;72.61;98593.22;4941863;28;20568;-74
2023/01/16 10:01:04;;;;;;;0.25;0.10;;;;;;;2.96;72.54;98608.63;4942487;28;20054;-72
2023/01/16 10:03:31;;;;;;;0.30;0.10;;;;;;;2.95;72.81;98599.22;4945017;29;20056;-71
2023/01/16 10:06:04;;;;;;;0.20;0.00;;;;;;;2.94;72.39;98606.09;4941528;28;20065;-72
2023/01/16 10:08:40;;;;;;;0.88;0.03;;;;;;;2.92;72.52;98605.28;4942393;29;20524;-72
2023/01/16 10:11:14;;;;;;;0.08;0.00;;;;;;;2.96;72.42;98616.38;4944841;28;20047;-73
2023/01/16 10:14:11;;;;;;;1.55;0.10;;;;;;;2.97;72.70;98613.75;4940270;28;20048;-73
2023/01/16 10:16:55;;;;;;;0.63;0.00;;;;;;;2.98;72.25;98614.59;4944073;28;20048;-73
2023/01/16 10:19:40;;;;;;;1.70;0.00;;;;;;;2.99;72.58;98624.03;4945312;28;20066;-73
2023/01/16 10:22:30;;;;;;;2.60;0.40;;;;;;;2.99;72.84;98630.06;4943429;29;20134;-72
2023/01/16 10:25:12;;;;;;;1.75;0.15;;;;;;;3.00;72.49;98634.31;4943547;29;20058;-73
2023/01/16 10:27:51;;;;;;;1.08;0.10;;;;;;;3.01;72.69;98642.91;4941779;28;20063;-73
2023/01/16 10:30:24;;;;;;;0.73;0.10;;;;;;;2.99;72.99;98642.97;4934746;28;20051;-73
2023/01/16 10:32:57;;;;;;;6.97;0.10;;;;;;;3.03;72.76;98654.91;4944008;28;20058;-73
2023/01/16 10:35:27;;;;;;;2.65;0.10;;;;;;;3.04;73.08;98656.56;4941794;28;20047;-72
2023/01/16 10:37:58;;;;;;;1.90;0.45;;;;;;;3.06;72.50;98661.72;4943982;29;20055;-73
2023/01/16 10:40:29;;;;;;;0.73;0.00;;;;;;;3.07;73.20;98673.72;4941628;28;20082;-73
2023/01/16 10:51:29;;;;;;;1.15;0.10;;;;;;;3.08;72.77;98676.28;4934863;28;20053;-73
2023/01/16 10:53:58;;;;;;;3.08;0.05;;;;;;;3.14;72.85;98683.03;4938683;28;20048;-72
2023/01/16 10:56:25;;;;;;;1.88;0.00;;;;;;;3.17;72.91;98676.97;4942419;28;20087;-72
2023/01/16 10:58:52;;;;;;;2.53;0.40;;;;;;;3.19;73.02;98685.50;4942369;28;20055;-73
2023/01/16 11:01:24;;;;;;;3.90;0.20;;;;;;;3.20;72.94;98692.38;4944338;28;20098;-72
2023/01/16 11:03:54;;;;;;;5.85;0.95;;;;;;;3.16;73.25;98691.59;4946058;28;20060;-73
2023/01/16 11:06:23;;;;;;;1.92;0.10;;;;;;;3.12;73.28;98689.94;4944080;28;20147;-73
2023/01/16 11:08:54;;;;;;;1.05;0.10;;;;;;;3.25;73.10;98711.19;4943299;29;20465;-73
2023/01/16 11:20:06;;;;;;;2.85;0.13;;;;;;;3.28;72.56;98724.88;4939029;29;20201;-73
2023/01/16 11:22:38;;;;;;;2.58;0.10;;;;;;;3.31;72.42;98737.69;4938088;29;20051;-73
2023/01/16 11:25:06;;;;;;;1.08;0.10;;;;;;;3.32;72.88;98739.38;4945264;28;20159;-72
2023/01/16 11:27:37;;;;;;;3.15;0.10;;;;;;;3.32;72.58;98744.53;4942383;28;20551;-73
2023/01/16 11:30:10;;;;;;;0.75;0.10;;;;;;;3.35;72.70;98741.91;4939185;29;20416;-73
2023/01/16 11:32:47;;;;;;;2.97;0.10;;;;;;;3.36;72.53;98741.03;4940316;29;20126;-72
2023/01/16 11:35:15;;;;;;;3.05;0.10;;;;;;;3.36;72.31;98753.94;4938285;29;20053;-73
2023/01/16 11:37:44;;;;;;;2.00;0.13;;;;;;;3.37;72.42;98747.88;4940908;29;20098;-73
2023/01/16 11:40:17;;;;;;;4.57;0.20;;;;;;;3.39;72.36;98755.59;4941765;28;20058;-73
2023/01/16 11:48:28;;;;;;;2.85;0.32;;;;;;;3.43;72.43;98770.13;4940515;29;20079;-71
2023/01/16 11:50:57;;;;;;;1.55;0.10;;;;;;;3.44;72.74;98766.66;4938788;28;20495;-72
2023/01/16 11:53:30;;;;;;;3.92;0.13;;;;;;;3.46;72.29;98776.97;4940718;28;20043;-73
2023/01/16 11:56:16;;;;;;;0.55;0.10;;;;;;;3.47;72.50;98773.47;4941337;28;20130;-72
2023/01/16 11:58:47;;;;;;;;;;;;;;;3.47;72.81;98776.94;4942837;28;20142;-72
2023/01/16 12:01:22;;;;;;;3.78;0.38;;;;;;;3.48;72.60;98780.38;4941300;28;19926;-73
2023/01/16 12:04:02;;;;;;;1.50;0.10;;;;;;;3.48;72.09;98786.38;4942495;29;20049;-71
2023/01/16 12:06:41;;;;;;;2.08;0.60;;;;;;;3.49;72.51;98776.88;4941470;28;20078;-70
2023/01/16 12:09:24;;;;;;;1.05;0.20;;;;;;;3.50;72.54;98789.78;4942990;28;20130;-71
2023/01/16 12:14:56;;;;;;;4.28;0.10;;;;;;;3.52;72.04;98805.22;4935979;28;20048;-71
2023/01/16 12:17:35;;;;;;;1.30;0.15;;;;;;;3.54;71.82;98816.38;4942620;28;20039;-71
2023/01/16 12:20:14;;;;;;;4.80;1.00;;;;;;;3.55;72.23;98812.88;4942151;28;20550;-72
2023/01/16 12:23:12;;;;;;;3.88;0.10;;;;;;;3.55;71.97;98813.72;4940585;29;20070;-71
2023/01/16 12:25:46;;;;;;;5.07;0.10;;;;;;;3.56;71.48;98814.63;4941817;28;20051;-71
2023/01/16 12:28:26;;;;;;;1.63;0.10;;;;;;;3.56;71.61;98815.47;4940118;28;20054;-70
2023/01/16 12:31:16;;;;;;;2.92;0.10;;;;;;;3.56;71.77;98815.47;4942620;28;20050;-71
2023/01/16 12:33:50;;;;;;;3.53;0.17;;;;;;;3.51;71.28;98809.53;4939409;28;20051;-71
2023/01/16 12:36:32;;;;;;;1.95;0.10;;;;;;;3.60;71.25;98829.13;4938475;28;20050;-70
2023/01/16 12:39:08;;;;;;;1.80;0.20;;;;;;;3.61;71.16;98830.81;4941320;28;20058;-72
2023/01/16 12:44:49;;;;;;;4.25;0.10;;;;;;;3.62;71.28;98848.03;4940798;29;20046;-72
2023/01/16 12:47:39;;;;;;;4.53;0.20;;;;;;;3.63;71.31;98851.47;4936876;28;20047;-72
2023/01/16 12:50:17;;;;;;;1.20;0.10;;;;;;;3.63;71.64;98856.63;4941228;28;20048;-73
2023/01/16 12:52:58;;;;;;;1.40;0.10;;;;;;;3.64;71.55;98864.31;4940253;28;20806;-72
2023/01/16 12:55:36;;;;;;;3.05;0.20;;;;;;;3.52;70.95;98844.78;4936453;28;20056;-71
2023/01/16 12:58:11;;;;;;;10.25;0.22;;;;;;;3.64;71.18;98869.50;4941202;29;20480;-72
2023/01/16 13:00:43;;;;;;;1.40;0.10;;;;;;;3.60;71.00;98865.28;4938306;29;20111;-72
2023/01/16 13:03:21;;;;;;;2.88;0.90;;;;;;;3.66;71.02;98885.81;4941488;28;20477;-70